Time,TemperatureF,DewpointF,PressureIn,WindDirection,WindDirectionDegrees,WindSpeedMPH,WindSpeedGustMPH,Humidity,HourlyPrecipIn,Conditions,Clouds,dailyrainin,SoftwareType,DateUTC
2013-01-10 00:02:00,46.0,37.0,-100.00,WSW,240,25.0,29.0,70,-99.99,,,-99.99,,2013-01-10 05:02:00,
2013-01-10 00:12:00,46.0,37.0,-100.00,WSW,240,25.0,31.0,70,-99.99,,,-99.99,,2013-01-10 05:12:00,
2013-01-10 00:22:00,46.0,37.0,-100.00,WSW,240,25.0,31.0,70,-99.99,,,-99.99,,2013-01-10 05:22:00,
2013-01-10 00:32:00,46.0,37.0,-100.00,WSW,240,25.0,31.0,70,-99.99,,,-99.99,,2013-01-10 05:32:00,
2013-01-10 00:42:00,45.0,37.0,-100.00,WSW,240,25.0,31.0,71,-99.99,,,-99.99,,2013-01-10 05:42:00,
2013-01-10 00:52:00,45.0,37.0,-100.00,WSW,240,25.0,31.0,71,-99.99,,,-99.99,,2013-01-10 05:52:00,
2013-01-10 01:02:00,45.0,37.0,-100.00,WSW,240,25.0,29.0,72,-99.99,,,-99.99,,2013-01-10 06:02:00,
2013-01-10 01:11:00,45.0,37.0,-100.00,WSW,240,25.0,29.0,72,-99.99,,,-99.99,,2013-01-10 06:11:00,
2013-01-10 01:22:00,45.0,36.0,-100.00,WSW,250,22.0,27.0,72,-99.99,,,-99.99,,2013-01-10 06:22:00,
2013-01-10 01:32:00,45.0,36.0,-100.00,WSW,250,22.0,27.0,72,-99.99,,,-99.99,,2013-01-10 06:32:00,
2013-01-10 01:42:00,45.0,35.0,-100.00,WSW,250,25.0,29.0,67,-99.99,,,-99.99,,2013-01-10 06:42:00,
2013-01-10 01:52:00,45.0,35.0,-100.00,WSW,250,25.0,29.0,67,-99.99,,,-99.99,,2013-01-10 06:52:00,
2013-01-10 02:01:00,45.0,35.0,-100.00,WSW,250,25.0,29.0,67,-99.99,,,-99.99,,2013-01-10 07:01:00,
2013-01-10 02:11:00,45.0,35.0,-100.00,West,260,22.0,27.0,67,-99.99,,,-99.99,,2013-01-10 07:11:00,
2013-01-10 02:22:00,45.0,35.0,-100.00,WSW,250,22.0,25.0,68,-99.99,,,-99.99,,2013-01-10 07:22:00,
2013-01-10 02:32:00,45.0,35.0,-100.00,WSW,250,22.0,25.0,68,-99.99,,,-99.99,,2013-01-10 07:32:00,
2013-01-10 02:42:00,44.0,35.0,-100.00,WSW,250,20.0,25.0,70,-99.99,,,-99.99,,2013-01-10 07:42:00,
2013-01-10 02:52:00,44.0,35.0,-100.00,WSW,250,20.0,25.0,70,-99.99,,,-99.99,,2013-01-10 07:52:00,
2013-01-10 03:00:00,44.0,33.0,-100.00,West,270,20.0,27.0,63,-99.99,,,-99.99,,2013-01-10 08:00:00,
2013-01-10 03:01:00,44.0,35.0,-100.00,West,260,20.0,25.0,69,-99.99,,,-99.99,,2013-01-10 08:01:00,
2013-01-10 03:11:00,44.0,35.0,-100.00,West,260,20.0,25.0,69,-99.99,,,-99.99,,2013-01-10 08:11:00,
2013-01-10 03:21:00,44.0,35.0,-100.00,West,260,20.0,25.0,69,-99.99,,,-99.99,,2013-01-10 08:21:00,
2013-01-10 03:32:00,44.0,33.0,-100.00,West,270,20.0,27.0,63,-99.99,,,-99.99,,2013-01-10 08:32:00,
2013-01-10 03:42:00,44.0,33.0,-100.00,West,270,20.0,27.0,63,-99.99,,,-99.99,,2013-01-10 08:42:00,
2013-01-10 03:52:00,44.0,33.0,-100.00,West,270,20.0,27.0,63,-99.99,,,-99.99,,2013-01-10 08:52:00,
2013-01-10 04:00:00,44.0,30.0,-100.00,West,280,16.0,22.0,58,-99.99,,,-99.99,,2013-01-10 09:00:00,
2013-01-10 04:11:00,44.0,31.0,-100.00,WNW,290,18.0,22.0,60,-99.99,,,-99.99,,2013-01-10 09:11:00,
2013-01-10 04:22:00,44.0,31.0,-100.00,WNW,290,18.0,22.0,60,-99.99,,,-99.99,,2013-01-10 09:22:00,
2013-01-10 04:32:00,44.0,31.0,-100.00,WNW,290,18.0,22.0,60,-99.99,,,-99.99,,2013-01-10 09:32:00,
2013-01-10 04:42:00,44.0,30.0,-100.00,West,280,16.0,22.0,58,-99.99,,,-99.99,,2013-01-10 09:42:00,
2013-01-10 04:52:00,44.0,30.0,-100.00,West,280,16.0,22.0,58,-99.99,,,-99.99,,2013-01-10 09:52:00,
2013-01-10 05:11:00,44.0,30.0,-100.00,West,280,13.0,16.0,59,-99.99,,,-99.99,,2013-01-10 10:11:00,
2013-01-10 05:22:00,44.0,30.0,-100.00,West,280,13.0,16.0,59,-99.99,,,-99.99,,2013-01-10 10:22:00,
2013-01-10 05:32:00,43.0,32.0,-100.00,West,270,9.0,13.0,65,-99.99,,,-99.99,,2013-01-10 10:32:00,
2013-01-10 05:42:00,43.0,32.0,-100.00,West,280,13.0,16.0,64,-99.99,,,-99.99,,2013-01-10 10:42:00,
2013-01-10 05:52:00,43.0,32.0,-100.00,West,280,13.0,16.0,64,-99.99,,,-99.99,,2013-01-10 10:52:00,
2013-01-10 06:00:00,43.0,28.0,-100.00,NW,320,20.0,25.0,54,-99.99,,,-99.99,,2013-01-10 11:00:00,
2013-01-10 06:02:00,43.0,31.0,-100.00,WNW,290,16.0,25.0,63,-99.99,,,-99.99,,2013-01-10 11:02:00,
2013-01-10 06:12:00,43.0,31.0,-100.00,WNW,290,16.0,25.0,63,-99.99,,,-99.99,,2013-01-10 11:12:00,
2013-01-10 06:22:00,44.0,28.0,-100.00,NW,310,20.0,27.0,54,-99.99,,,-99.99,,2013-01-10 11:22:00,
2013-01-10 06:32:00,44.0,28.0,-100.00,NW,310,20.0,27.0,54,-99.99,,,-99.99,,2013-01-10 11:32:00,
2013-01-10 06:42:00,43.0,28.0,-100.00,NW,320,20.0,25.0,54,-99.99,,,-99.99,,2013-01-10 11:42:00,
2013-01-10 06:52:00,43.0,28.0,-100.00,NW,320,20.0,25.0,54,-99.99,,,-99.99,,2013-01-10 11:52:00,
2013-01-10 07:11:00,42.0,29.0,-100.00,NW,320,16.0,20.0,57,-99.99,,,-99.99,,2013-01-10 12:11:00,
2013-01-10 07:22:00,42.0,29.0,-100.00,NW,320,16.0,20.0,57,-99.99,,,-99.99,,2013-01-10 12:22:00,
2013-01-10 07:32:00,42.0,29.0,-100.00,NW,320,16.0,20.0,57,-99.99,,,-99.99,,2013-01-10 12:32:00,
2013-01-10 07:42:00,42.0,29.0,-100.00,NW,320,18.0,22.0,58,-99.99,,,-99.99,,2013-01-10 12:42:00,
2013-01-10 07:52:00,42.0,29.0,-100.00,NW,320,18.0,22.0,58,-99.99,,,-99.99,,2013-01-10 12:52:00,
2013-01-10 08:01:00,42.0,29.0,-100.00,NW,320,9.0,13.0,60,-99.99,,,-99.99,,2013-01-10 13:01:00,
2013-01-10 08:11:00,42.0,29.0,-100.00,NW,320,9.0,13.0,60,-99.99,,,-99.99,,2013-01-10 13:11:00,
2013-01-10 08:22:00,42.0,28.0,-100.00,NNW,330,11.0,16.0,57,-99.99,,,-99.99,,2013-01-10 13:22:00,
2013-01-10 08:32:00,42.0,28.0,-100.00,NNW,330,11.0,16.0,57,-99.99,,,-99.99,,2013-01-10 13:32:00,
2013-01-10 08:42:00,42.0,26.0,-100.00,NNW,330,16.0,20.0,53,-99.99,,,-99.99,,2013-01-10 13:42:00,
2013-01-10 08:52:00,42.0,26.0,-100.00,NNW,330,16.0,20.0,53,-99.99,,,-99.99,,2013-01-10 13:52:00,
2013-01-10 09:01:00,42.0,25.0,-100.00,NW,320,16.0,18.0,51,-99.99,,,-99.99,,2013-01-10 14:01:00,
2013-01-10 09:11:00,42.0,25.0,-100.00,NW,320,16.0,18.0,51,-99.99,,,-99.99,,2013-01-10 14:11:00,
2013-01-10 09:22:00,42.0,25.0,-100.00,NW,320,16.0,18.0,51,-99.99,,,-99.99,,2013-01-10 14:22:00,
2013-01-10 09:32:00,42.0,26.0,-100.00,NW,310,11.0,13.0,52,-99.99,,,-99.99,,2013-01-10 14:32:00,
2013-01-10 09:42:00,42.0,26.0,-100.00,WNW,300,16.0,20.0,54,-99.99,,,-99.99,,2013-01-10 14:42:00,
2013-01-10 09:52:00,42.0,26.0,-100.00,WNW,300,16.0,20.0,54,-99.99,,,-99.99,,2013-01-10 14:52:00,
2013-01-10 10:02:00,42.0,26.0,-100.00,WNW,300,18.0,22.0,53,-99.99,,,-99.99,,2013-01-10 15:02:00,
2013-01-10 10:12:00,42.0,26.0,-100.00,WNW,300,18.0,22.0,53,-99.99,,,-99.99,,2013-01-10 15:12:00,
2013-01-10 10:22:00,42.0,26.0,-100.00,WNW,300,18.0,22.0,53,-99.99,,,-99.99,,2013-01-10 15:22:00,
2013-01-10 10:32:00,42.0,26.0,-100.00,WNW,300,18.0,22.0,53,-99.99,,,-99.99,,2013-01-10 15:32:00,
2013-01-10 10:42:00,42.0,26.0,-100.00,WNW,300,16.0,20.0,53,-99.99,,,-99.99,,2013-01-10 15:42:00,
2013-01-10 10:52:00,42.0,26.0,-100.00,WNW,300,16.0,20.0,53,-99.99,,,-99.99,,2013-01-10 15:52:00,
2013-01-10 11:02:00,42.0,27.0,-100.00,WNW,290,18.0,25.0,55,-99.99,,,-99.99,,2013-01-10 16:02:00,
2013-01-10 11:12:00,42.0,27.0,-100.00,WNW,290,18.0,25.0,55,-99.99,,,-99.99,,2013-01-10 16:12:00,
2013-01-10 11:22:00,42.0,27.0,-100.00,WNW,290,18.0,25.0,55,-99.99,,,-99.99,,2013-01-10 16:22:00,
2013-01-10 11:32:00,42.0,29.0,-100.00,West,280,18.0,22.0,58,-99.99,,,-99.99,,2013-01-10 16:32:00,
2013-01-10 11:42:00,42.0,29.0,-100.00,West,280,18.0,22.0,58,-99.99,,,-99.99,,2013-01-10 16:42:00,
2013-01-10 11:52:00,42.0,29.0,-100.00,West,280,18.0,22.0,58,-99.99,,,-99.99,,2013-01-10 16:52:00,
2013-01-10 12:00:00,43.0,27.0,-100.00,NW,310,20.0,22.0,52,-99.99,,,-99.99,,2013-01-10 17:00:00,
2013-01-10 12:02:00,43.0,28.0,-100.00,NW,310,16.0,25.0,55,-99.99,,,-99.99,,2013-01-10 17:02:00,
2013-01-10 12:11:00,43.0,28.0,-100.00,NW,310,16.0,25.0,55,-99.99,,,-99.99,,2013-01-10 17:11:00,
2013-01-10 12:22:00,43.0,28.0,-100.00,NW,310,16.0,25.0,55,-99.99,,,-99.99,,2013-01-10 17:22:00,
2013-01-10 12:33:00,43.0,27.0,-100.00,WNW,300,20.0,25.0,52,-99.99,,,-99.99,,2013-01-10 17:33:00,
2013-01-10 12:42:00,43.0,27.0,-100.00,NW,310,20.0,22.0,52,-99.99,,,-99.99,,2013-01-10 17:42:00,
2013-01-10 12:52:00,43.0,27.0,-100.00,NW,310,20.0,22.0,52,-99.99,,,-99.99,,2013-01-10 17:52:00,
2013-01-10 13:12:00,43.0,28.0,-100.00,NW,310,18.0,27.0,54,-99.99,,,-99.99,,2013-01-10 18:12:00,
2013-01-10 13:22:00,43.0,28.0,-100.00,NW,310,18.0,27.0,54,-99.99,,,-99.99,,2013-01-10 18:22:00,
2013-01-10 13:32:00,43.0,28.0,-100.00,NW,310,18.0,27.0,54,-99.99,,,-99.99,,2013-01-10 18:32:00,
2013-01-10 13:43:00,44.0,27.0,-100.00,NW,310,18.0,25.0,51,-99.99,,,-99.99,,2013-01-10 18:43:00,
2013-01-10 13:52:00,44.0,27.0,-100.00,NW,310,18.0,25.0,51,-99.99,,,-99.99,,2013-01-10 18:52:00,
2013-01-10 14:02:00,44.0,27.0,-100.00,NW,310,22.0,27.0,51,-99.99,,,-99.99,,2013-01-10 19:02:00,
2013-01-10 14:12:00,44.0,27.0,-100.00,NW,310,22.0,27.0,51,-99.99,,,-99.99,,2013-01-10 19:12:00,
2013-01-10 14:22:00,44.0,28.0,-100.00,NW,310,18.0,22.0,52,-99.99,,,-99.99,,2013-01-10 19:22:00,
2013-01-10 14:32:00,44.0,28.0,-100.00,NW,310,18.0,22.0,52,-99.99,,,-99.99,,2013-01-10 19:32:00,
2013-01-10 14:42:00,44.0,28.0,-100.00,NW,310,18.0,22.0,52,-99.99,,,-99.99,,2013-01-10 19:42:00,
2013-01-10 14:52:00,44.0,28.0,-100.00,NW,310,18.0,22.0,52,-99.99,,,-99.99,,2013-01-10 19:52:00,
2013-01-10 15:00:00,45.0,28.0,-100.00,NW,310,16.0,20.0,52,-99.99,,,-99.99,,2013-01-10 20:00:00,
2013-01-10 15:02:00,44.0,27.0,-100.00,NW,310,20.0,25.0,49,-99.99,,,-99.99,,2013-01-10 20:02:00,
2013-01-10 15:11:00,44.0,27.0,-100.00,NW,310,20.0,25.0,49,-99.99,,,-99.99,,2013-01-10 20:11:00,
2013-01-10 15:32:00,44.0,27.0,-100.00,WNW,300,20.0,25.0,51,-99.99,,,-99.99,,2013-01-10 20:32:00,
2013-01-10 15:42:00,45.0,28.0,-100.00,NW,310,16.0,20.0,52,-99.99,,,-99.99,,2013-01-10 20:42:00,
2013-01-10 15:52:00,45.0,28.0,-100.00,NW,310,16.0,20.0,52,-99.99,,,-99.99,,2013-01-10 20:52:00,
2013-01-10 16:11:00,44.0,29.0,-100.00,WNW,300,16.0,18.0,54,-99.99,,,-99.99,,2013-01-10 21:11:00,
2013-01-10 16:32:00,44.0,29.0,-100.00,WNW,300,13.0,18.0,55,-99.99,,,-99.99,,2013-01-10 21:32:00,
2013-01-10 16:42:00,44.0,29.0,-100.00,WNW,300,13.0,18.0,55,-99.99,,,-99.99,,2013-01-10 21:42:00,
2013-01-10 17:12:00,44.0,31.0,-100.00,WNW,300,11.0,13.0,59,-99.99,,,-99.99,,2013-01-10 22:12:00,
2013-01-10 17:32:00,43.0,31.0,-100.00,WNW,300,11.0,11.0,60,-99.99,,,-99.99,,2013-01-10 22:32:00,
2013-01-10 17:42:00,43.0,31.0,-100.00,WNW,300,11.0,11.0,60,-99.99,,,-99.99,,2013-01-10 22:42:00,
2013-01-10 18:02:00,43.0,31.0,-100.00,WNW,300,13.0,16.0,61,-99.99,,,-99.99,,2013-01-10 23:02:00,
2013-01-10 18:12:00,43.0,31.0,-100.00,WNW,300,13.0,16.0,61,-99.99,,,-99.99,,2013-01-10 23:12:00,